• Join FlightAware (Why Join?)
  • Login
  • US Flag GB Flag 
08:26 EST


 

Airport Tracker/Info


-or-


 

Live Flight TrackerFlight Track Log ✈ DAL6115 ✈ 10-Apr-2013 ✈ KJFK - KROC

Flight Track Log - Related Links

Times and Time Zones

All times are in EDT time to prevent confusion due to time zone crossing. See the DAL6115 flight status page for this flight to view local times or setup timezone preferences in your user account.

Time Position Orientation Groundspeed Altitude Reporting Facility
EDT Latitude Longitude Course Direction KTS MPH feet Rate Location/Type
10:02 40.6667 -73.7333 316° Northwest 199 229 1,900  Level New York TRACON
10:02 40.6667 -73.6500 90° East 235 270 4,000 2,280 Climbing New York TRACON
10:04 40.6833 -73.5667 75° East 249 287 6,500 2,340 Climbing New York TRACON
10:05 40.7333 -73.5000 45° Northeast 240 276 9,000 2,220 Climbing New York TRACON
10:06 40.8000 -73.4833 11° North 210 242 11,200 2,040 Climbing New York TRACON
10:07 40.9508 -74.2105 316° Northwest  Level FlightAware Approximate
10:07 40.8500 -73.5000 346° North 219 252 13,300  Level New York TRACON
10:08 40.9000 -73.5333 333° Northwest 203 234 15,100 1,860 Climbing New York TRACON
10:09 40.9167 -73.6000 288° West 202 232 16,900 900 Climbing New York TRACON
10:10 40.9500 -73.6833 298° West 246 283 17,000  Climbing New York TRACON
10:11 40.9667 -73.7667 285° West 269 310 17,000  Level New York TRACON
10:12 41.0000 -73.8500 298° West 256 295 17,000  Level New York TRACON
10:13 41.0167 -73.9333 285° West 222 255 17,000 60 Level New York TRACON
10:15 41.0675 -74.0708 296° West 217 250 17,200 600 Climbing New York Center
10:16 41.0922 -74.1519 292° West 217 250 19,000 1,740 Climbing New York Center
10:17 41.1175 -74.2219 296° West 217 250 20,700 1,500 Climbing New York Center
10:18 41.1439 -74.3089 292° West 224 258 22,000 600 Climbing New York Center
10:19 41.1725 -74.4011 292° West 253 291 22,000  Level New York Center
10:20 41.2025 -74.5047 291° West 281 323 22,000  Level New York Center
10:21 41.2389 -74.6006 297° West 294 338 22,000  Level New York Center
10:22 41.2906 -74.6836 310° West 294 338 22,000  Level New York Center
10:23 41.3339 -74.7581 308° West 294 338 22,000  Level New York Center
10:24 41.3853 -74.8386 310° West 289 333 22,000  Level New York Center
10:25 41.4344 -74.9161 310° West 284 327 22,000  Level New York Center
10:26 41.4817 -74.9967 308° West 279 321 22,000  Level New York Center
10:27 41.5289 -75.0744 309° West 279 321 22,000  Level New York Center
10:28 41.5739 -75.1550 307° West 279 321 22,000  Level New York Center
10:29 41.6017 -75.2483 292° West 274 315 22,000  Level New York Center
10:30 41.6272 -75.3389 291° West 268 308 22,000  Level New York Center
10:31 41.6567 -75.4408 291° West 268 308 22,000  Level New York Center
10:32 41.6819 -75.5369 289° West 268 308 22,000  Level New York Center
10:33 41.7094 -75.6306 292° West 273 314 22,000  Level New York Center
10:34 41.7367 -75.7244 291° West 273 314 22,000  Level New York Center
10:35 41.7619 -75.8181 290° West 273 314 22,000  Level New York Center
10:36 41.7892 -75.9147 291° West 273 314 22,000  Level New York Center
10:37 41.8161 -76.0086 291° West 273 314 22,000  Level New York Center
10:38 41.8411 -76.1025 290° West 273 314 22,000 -420 Level New York Center
10:39 41.8681 -76.1964 291° West 273 314 21,200 -960 Descending New York Center
10:40 41.8967 -76.2992 291° West 273 314 20,100 -1,140 Descending New York Center
10:41 41.9233 -76.3989 290° West 279 321 19,000 -1,140 Descending New York Center
10:42 41.9497 -76.4986 290° West 279 321 17,900 -1,080 Descending New York Center
10:43 42.0750 -76.6189 325° Northwest 282 325 16,000 -720 Descending Cleveland Center
10:44 42.1353 -76.6683 329° Northwest 276 318 15,900 -60 Descending Cleveland Center
10:45 42.1911 -76.7153 328° Northwest 258 297 15,900  Level Cleveland Center
10:46 42.2533 -76.7678 328° Northwest 258 297 15,900  Level Cleveland Center
10:47 42.3111 -76.8175 328° Northwest 258 297 15,900  Level Cleveland Center
10:48 42.3711 -76.8703 327° Northwest 253 291 15,900  Level Cleveland Center
10:49 42.4314 -76.9231 327° Northwest 253 291 15,900  Level Cleveland Center
10:50 42.4914 -76.9731 328° Northwest 253 291 15,900  Level Cleveland Center
10:51 42.5342 -77.0128 326° Northwest 245 282 16,000 -300 Climbing Cleveland Center
10:52 42.5536 -77.0314 325° Northwest 240 276 15,600 -1,080 Descending Cleveland Center
10:52 42.5989 -77.0825 320° Northwest 246 283 14,700 -1,200 Descending Cleveland Center
10:53 42.6550 -77.1500 319° Northwest 252 290 13,500 -1,260 Descending Cleveland Center
10:54 42.7133 -77.2119 322° Northwest 259 298 12,200 -1,500 Descending Cleveland Center
10:55 42.7628 -77.2686 320° Northwest 253 291 10,500 -1,920 Descending Cleveland Center
10:56 42.8083 -77.3314 315° West 240 276 8,400 -1,860 Descending Cleveland Center
10:57 42.8456 -77.3917 310° West 226 260 6,800 -1,800 Descending Cleveland Center
10:58 42.8564 -77.4108 308° West 215 247 6,200 -1,620 Descending Cleveland Center
10:58 42.8703 -77.4556 293° West 214 246 5,200 -1,440 Descending Cleveland Center
10:59 42.8792 -77.4833 294° West 206 237 4,800 -1,140 Descending Cleveland Center
10:59 42.8928 -77.5253 294° West 207 238 4,100 -840 Descending Cleveland Center
11:00 42.9000 -77.5561 288° West 207 238 4,000 -300 Descending Cleveland Center
11:00 42.9117 -77.6008 290° West 207 238 3,800 -600 Descending Cleveland Center
11:01 42.9164 -77.6292 283° West 209 241 3,400 -1,020 Descending Cleveland Center
11:02 42.9372 -77.7131 289° West 233 268 2,500 -480 Descending Cleveland Center
11:03 42.9578 -77.7861 291° West 190 219 2,500  Level Cleveland Center
11:04 43.0117 -77.7694 13° North 186 214 2,500 -300 Level Cleveland Center
11:05 43.0483 -77.7364 33° Northeast 136 157 1,900 -660 Descending Cleveland Center
11:06 43.0792 -77.7122 30° Northeast 130 150 1,200 -720 Descending Cleveland Center